createdAt,value
2019-02-28T00:00:47.604Z,44.70
2019-02-28T00:03:17.496Z,64.87
2019-02-28T00:05:45.946Z,61.13
2019-02-28T00:08:14.294Z,56.90
2019-02-28T00:10:43.624Z,54.37
2019-02-28T00:13:12.012Z,47.00
2019-02-28T00:15:40.406Z,55.60
2019-02-28T00:18:08.769Z,59.37
2019-02-28T00:20:37.350Z,57.97
2019-02-28T00:23:05.771Z,46.90
2019-02-28T00:25:37.712Z,53.97
2019-02-28T00:28:04.368Z,52.30
2019-02-28T00:30:32.711Z,40.60
2019-02-28T00:33:01.175Z,47.60
2019-02-28T00:35:29.470Z,53.17
2019-02-28T00:37:57.662Z,53.67
2019-02-28T00:40:26.242Z,54.57
2019-02-28T00:42:54.607Z,53.70
2019-02-28T00:45:23.027Z,32.07
2019-02-28T00:47:51.333Z,45.47
2019-02-28T00:50:19.752Z,33.77
2019-02-28T00:52:48.128Z,57.40
2019-02-28T00:55:17.120Z,47.07
2019-02-28T00:57:45.635Z,55.87
2019-02-28T01:00:15.514Z,54.57
2019-02-28T01:02:43.854Z,41.27
2019-02-28T01:05:12.313Z,44.43
2019-02-28T01:07:40.781Z,30.20
2019-02-28T01:10:10.575Z,31.97
2019-02-28T01:12:38.927Z,43.70
2019-02-28T01:15:10.053Z,34.20
2019-02-28T01:17:39.111Z,40.77
2019-02-28T01:20:07.826Z,37.63
2019-02-28T01:22:36.059Z,46.47
2019-02-28T01:25:07.083Z,52.00
2019-02-28T01:27:35.530Z,40.77
2019-02-28T01:30:06.606Z,43.57
2019-02-28T01:32:34.542Z,54.47
2019-02-28T01:35:05.798Z,37.00
2019-02-28T01:37:32.889Z,41.97
2019-02-28T01:40:04.318Z,42.67
2019-02-28T01:42:31.182Z,44.30
2019-02-28T01:44:59.394Z,36.27
2019-02-28T01:47:27.646Z,46.40
2019-02-28T01:49:57.790Z,42.50
2019-02-28T01:52:25.954Z,45.70
2019-02-28T01:54:54.269Z,42.83
2019-02-28T01:57:22.642Z,26.03
2019-02-28T01:59:52.872Z,42.67
2019-02-28T02:02:21.147Z,37.60
2019-02-28T02:04:49.482Z,38.57
2019-02-28T02:07:19.714Z,44.80
2019-02-28T02:09:48.182Z,40.83
2019-02-28T02:12:16.408Z,45.90
2019-02-28T02:14:45.694Z,43.50
2019-02-28T02:17:15.418Z,41.80
2019-02-28T02:19:43.734Z,37.13
2019-02-28T02:22:11.964Z,35.70
2019-02-28T02:24:40.313Z,37.27
2019-02-28T02:27:08.569Z,38.00
2019-02-28T02:29:37.120Z,35.50
2019-02-28T02:32:05.567Z,39.93
2019-02-28T02:34:33.794Z,36.13
2019-02-28T02:37:02.114Z,33.97
2019-02-28T02:39:30.506Z,43.90
2019-02-28T02:41:58.919Z,38.70
2019-02-28T02:44:30.670Z,48.27
2019-02-28T02:46:57.185Z,48.10
2019-02-28T02:49:25.568Z,33.07
2019-02-28T02:51:53.995Z,36.87
2019-02-28T02:54:22.323Z,37.87
2019-02-28T02:56:50.593Z,37.07
2019-02-28T02:59:19.034Z,34.53
2019-02-28T03:01:47.278Z,37.17
2019-02-28T03:04:21.393Z,40.50
2019-02-28T03:06:48.341Z,46.20
2019-02-28T03:09:17.894Z,41.70
2019-02-28T03:11:46.160Z,46.30
2019-02-28T03:14:16.355Z,42.47
2019-02-28T03:16:44.494Z,35.57
2019-02-28T03:19:12.950Z,33.27
2019-02-28T03:21:41.236Z,49.20
2019-02-28T03:24:14.573Z,44.13
2019-02-28T03:26:41.832Z,38.57
2019-02-28T03:29:09.589Z,44.70
2019-02-28T03:31:38.051Z,44.17
2019-02-28T03:34:13.225Z,43.63
2019-02-28T03:36:37.579Z,40.13
2019-02-28T03:39:06.212Z,50.47
2019-02-28T03:41:34.628Z,43.63
2019-02-28T03:44:03.082Z,43.33
2019-02-28T03:46:31.489Z,39.47
2019-02-28T03:48:59.842Z,42.63
2019-02-28T03:51:28.737Z,43.03
2019-02-28T03:53:58.183Z,45.63
2019-02-28T03:56:26.603Z,33.70
2019-02-28T03:58:54.867Z,47.43
2019-02-28T04:01:23.704Z,38.87
2019-02-28T04:03:52.099Z,41.63
2019-02-28T04:06:20.499Z,32.27
2019-02-28T04:08:48.945Z,43.20
2019-02-28T04:11:17.307Z,39.53
2019-02-28T04:13:45.729Z,32.50
2019-02-28T04:16:14.109Z,37.23
2019-02-28T04:18:46.134Z,46.30
2019-02-28T04:21:12.302Z,37.83
2019-02-28T04:23:40.629Z,39.37
2019-02-28T04:26:08.742Z,38.87
2019-02-28T04:28:37.134Z,43.23
2019-02-28T04:31:05.426Z,35.03
2019-02-28T04:33:37.700Z,40.93
2019-02-28T04:36:03.774Z,36.20
2019-02-28T04:38:32.201Z,39.90
2019-02-28T04:41:00.493Z,44.67
2019-02-28T04:43:28.754Z,41.10
2019-02-28T04:45:57.884Z,33.10
2019-02-28T04:48:26.828Z,39.17
2019-02-28T04:50:55.039Z,42.40
2019-02-28T04:53:23.366Z,40.27
2019-02-28T04:55:51.622Z,41.73
2019-02-28T04:58:22.369Z,44.77
2019-02-28T05:00:49.743Z,32.63
2019-02-28T05:03:18.117Z,41.33
2019-02-28T05:05:47.079Z,36.13
2019-02-28T05:08:16.015Z,30.57
2019-02-28T05:10:44.383Z,31.37
2019-02-28T05:13:14.289Z,39.17
2019-02-28T05:15:42.726Z,44.17
2019-02-28T05:18:11.242Z,40.17
2019-02-28T05:20:44.682Z,32.00
2019-02-28T05:23:09.486Z,38.80
2019-02-28T05:25:37.946Z,29.80
2019-02-28T05:28:07.461Z,31.70
2019-02-28T05:30:36.146Z,42.53
2019-02-28T05:33:06.652Z,35.60
2019-02-28T05:35:34.510Z,41.53
2019-02-28T05:38:02.837Z,38.47
2019-02-28T05:40:31.148Z,39.13
2019-02-28T05:42:59.591Z,31.30
2019-02-28T05:45:28.021Z,37.83
2019-02-28T05:47:56.274Z,24.87
2019-02-28T05:50:24.705Z,37.73
2019-02-28T05:52:53.132Z,36.23
2019-02-28T05:55:24.849Z,29.63
2019-02-28T05:57:51.701Z,32.33
2019-02-28T06:03:36.253Z,33.50
2019-02-28T06:09:20.863Z,37.07
2019-02-28T06:15:07.587Z,30.27
2019-02-28T06:17:35.817Z,30.17
2019-02-28T06:20:05.767Z,22.83
2019-02-28T06:25:50.181Z,30.27
2019-02-28T06:31:22.921Z,29.03
2019-02-28T06:37:06.766Z,29.33
2019-02-28T06:42:52.069Z,32.83
2019-02-28T06:48:37.504Z,37.77
2019-02-28T06:51:06.062Z,30.07
2019-02-28T06:53:36.338Z,34.53
2019-02-28T06:56:04.998Z,33.37
2019-02-28T06:58:33.898Z,29.93
2019-02-28T07:01:02.338Z,25.77
2019-02-28T07:03:30.627Z,34.37
2019-02-28T07:06:01.131Z,29.53
2019-02-28T07:08:29.082Z,34.00
2019-02-28T07:10:57.502Z,30.57
2019-02-28T07:13:26.864Z,29.37
2019-02-28T07:15:55.487Z,31.53
2019-02-28T07:18:25.320Z,22.77
2019-02-28T07:20:53.616Z,23.90
2019-02-28T07:23:22.308Z,32.60
2019-02-28T07:25:52.402Z,30.47
2019-02-28T07:28:20.777Z,24.30
2019-02-28T07:30:50.346Z,33.53
2019-02-28T07:33:19.660Z,29.90
2019-02-28T07:35:47.906Z,33.43
2019-02-28T07:38:16.234Z,30.43
2019-02-28T07:40:45.702Z,28.77
2019-02-28T07:43:14.187Z,31.30
2019-02-28T07:45:42.494Z,18.77
2019-02-28T07:48:10.767Z,18.90
2019-02-28T07:50:39.142Z,32.53
2019-02-28T07:53:08.795Z,30.63
2019-02-28T07:55:38.083Z,41.07
2019-02-28T07:58:06.742Z,29.87
2019-02-28T08:00:35.045Z,28.70
2019-02-28T08:03:03.283Z,29.97
2019-02-28T08:05:31.559Z,37.63
2019-02-28T08:07:59.848Z,33.00
2019-02-28T08:10:28.849Z,29.03
2019-02-28T08:12:57.181Z,37.17
2019-02-28T08:15:26.142Z,31.67
2019-02-28T08:17:54.486Z,33.70
2019-02-28T08:20:23.385Z,31.67
2019-02-28T08:22:51.829Z,28.10
2019-02-28T08:25:20.163Z,38.90
2019-02-28T08:27:48.688Z,38.13
2019-02-28T08:30:19.433Z,32.53
2019-02-28T08:32:48.143Z,32.93
2019-02-28T08:35:16.413Z,34.10
2019-02-28T08:37:44.814Z,34.27
2019-02-28T08:40:15.761Z,35.03
2019-02-28T08:42:44.751Z,36.03
2019-02-28T08:45:14.077Z,27.73
2019-02-28T08:47:42.553Z,33.23
2019-02-28T08:50:12.047Z,33.67
2019-02-28T08:52:42.262Z,39.67
2019-02-28T08:55:12.201Z,26.57
2019-02-28T08:57:40.561Z,37.93
2019-02-28T09:00:10.543Z,32.60
2019-02-28T09:02:41.154Z,24.90
2019-02-28T09:05:09.701Z,29.87
2019-02-28T09:07:38.626Z,36.83
2019-02-28T09:10:11.831Z,34.53
2019-02-28T09:12:38.603Z,31.83
2019-02-28T09:15:08.424Z,31.40
2019-02-28T09:17:37.872Z,38.23
2019-02-28T09:20:10.556Z,33.50
2019-02-28T09:22:37.980Z,35.57
2019-02-28T09:25:07.804Z,25.40
2019-02-28T09:27:38.861Z,37.27
2019-02-28T09:30:07.683Z,31.00
2019-02-28T09:32:36.037Z,29.63
2019-02-28T09:35:12.285Z,31.90
2019-02-28T09:37:35.947Z,43.03
2019-02-28T09:40:05.994Z,37.03
2019-02-28T09:42:34.419Z,34.13
2019-02-28T09:45:06.730Z,34.00
2019-02-28T09:47:32.783Z,48.70
2019-02-28T09:50:00.961Z,38.20
2019-02-28T09:52:30.602Z,30.47
2019-02-28T09:54:59.216Z,40.30
2019-02-28T09:57:30.156Z,29.43
2019-02-28T09:59:58.241Z,35.03
2019-02-28T10:02:26.474Z,38.87
2019-02-28T10:04:54.760Z,38.43
2019-02-28T10:07:23.362Z,40.33
2019-02-28T10:09:52.994Z,44.10
2019-02-28T10:12:21.566Z,34.47
2019-02-28T10:14:51.954Z,38.03
2019-02-28T10:17:19.966Z,45.53
2019-02-28T10:19:49.149Z,44.93
2019-02-28T10:22:18.427Z,36.63
2019-02-28T10:24:46.706Z,39.90
2019-02-28T10:27:14.993Z,37.03
2019-02-28T10:29:43.456Z,31.07
2019-02-28T10:32:11.722Z,30.07
2019-02-28T10:34:40.013Z,40.90
2019-02-28T10:37:08.593Z,38.07
2019-02-28T10:39:37.025Z,43.70
2019-02-28T10:42:06.108Z,32.87
2019-02-28T10:44:34.549Z,41.63
2019-02-28T10:47:04.389Z,38.50
2019-02-28T10:49:32.800Z,43.30
2019-02-28T10:52:01.271Z,47.87
2019-02-28T10:54:30.681Z,32.87
2019-02-28T10:56:59.466Z,38.53
2019-02-28T10:59:27.798Z,56.83
2019-02-28T11:01:55.968Z,31.73
2019-02-28T11:04:24.901Z,33.93
2019-02-28T11:06:53.336Z,34.87
2019-02-28T11:09:25.218Z,45.17
2019-02-28T11:11:51.599Z,41.07
2019-02-28T11:14:19.926Z,42.63
2019-02-28T11:16:48.286Z,38.70
2019-02-28T11:19:18.648Z,27.37
2019-02-28T11:21:46.654Z,43.33
2019-02-28T11:24:14.982Z,41.10
2019-02-28T11:26:44.716Z,46.77
2019-02-28T11:29:13.645Z,40.40
2019-02-28T11:31:42.125Z,43.13
2019-02-28T11:34:11.580Z,42.80
2019-02-28T11:36:40.680Z,43.17
2019-02-28T11:39:10.370Z,48.60
2019-02-28T11:41:38.786Z,36.37
2019-02-28T11:44:09.298Z,41.30
2019-02-28T11:46:37.393Z,35.00
2019-02-28T11:49:05.801Z,41.47
2019-02-28T11:51:34.328Z,41.23
2019-02-28T11:54:02.765Z,51.30
2019-02-28T11:56:31.381Z,37.97
2019-02-28T11:58:59.884Z,63.37
2019-02-28T12:01:28.421Z,41.07
2019-02-28T12:03:56.933Z,56.87
2019-02-28T12:06:25.539Z,46.30
2019-02-28T12:08:54.986Z,55.73
2019-02-28T12:11:25.117Z,40.10
2019-02-28T12:13:55.222Z,33.53
2019-02-28T12:16:23.545Z,35.00
2019-02-28T12:18:51.734Z,32.87
2019-02-28T12:21:19.989Z,33.67
2019-02-28T12:23:48.414Z,28.07
2019-02-28T12:26:17.692Z,43.17
2019-02-28T12:28:46.650Z,36.50
2019-02-28T12:31:15.044Z,26.63
2019-02-28T12:33:43.464Z,51.83
2019-02-28T12:36:14.475Z,34.77
2019-02-28T12:38:41.718Z,35.67
2019-02-28T12:41:11.434Z,50.90
2019-02-28T12:43:40.579Z,45.77
2019-02-28T12:46:09.884Z,47.17
2019-02-28T12:48:38.154Z,42.33
2019-02-28T12:54:11.951Z,44.00
2019-02-28T12:56:40.379Z,44.13
2019-02-28T12:59:09.920Z,37.13
2019-02-28T13:01:38.724Z,34.93
2019-02-28T13:07:22.902Z,35.37
2019-02-28T13:09:51.653Z,26.73
2019-02-28T13:12:21.071Z,31.40
2019-02-28T13:14:49.406Z,37.13
2019-02-28T13:17:17.842Z,34.37
2019-02-28T13:19:46.050Z,46.67
2019-02-28T13:22:14.279Z,39.23
2019-02-28T13:24:45.863Z,43.53
2019-02-28T13:27:13.020Z,30.10
2019-02-28T13:29:41.248Z,31.20
2019-02-28T13:32:09.603Z,35.57
2019-02-28T13:34:38.131Z,34.70
2019-02-28T13:37:06.397Z,40.80
2019-02-28T13:39:34.650Z,29.83
2019-02-28T13:42:04.145Z,42.07
2019-02-28T13:44:36.446Z,37.97
2019-02-28T13:47:09.056Z,28.07
2019-02-28T13:49:32.947Z,41.13
2019-02-28T13:52:01.501Z,53.43
2019-02-28T13:54:29.919Z,39.00
2019-02-28T13:56:58.197Z,48.97
2019-02-28T13:59:28.493Z,29.77
2019-02-28T14:01:56.618Z,31.60
2019-02-28T14:04:27.094Z,48.93
2019-02-28T14:06:55.877Z,36.47
2019-02-28T14:09:25.277Z,47.50
2019-02-28T14:11:53.961Z,41.30
2019-02-28T14:14:23.163Z,44.80
2019-02-28T14:16:52.932Z,58.43
2019-02-28T14:19:21.448Z,39.77
2019-02-28T14:21:49.887Z,39.87
2019-02-28T14:24:18.952Z,48.63
2019-02-28T14:26:49.569Z,35.27
2019-02-28T14:29:17.370Z,44.17
2019-02-28T14:31:45.748Z,43.40
2019-02-28T14:34:14.034Z,49.73
2019-02-28T14:36:45.149Z,38.43
2019-02-28T14:39:12.532Z,37.87
2019-02-28T14:41:40.982Z,33.00
2019-02-28T14:44:09.341Z,55.80
2019-02-28T14:46:37.796Z,42.87
2019-02-28T14:49:06.199Z,47.53
2019-02-28T14:51:35.446Z,53.30
2019-02-28T14:54:03.758Z,36.77
2019-02-28T14:56:32.788Z,30.27
2019-02-28T14:59:01.144Z,32.80
2019-02-28T15:01:29.467Z,53.70
2019-02-28T15:03:57.868Z,39.07
2019-02-28T15:06:29.203Z,44.33
2019-02-28T15:08:56.181Z,49.80
2019-02-28T15:11:24.474Z,46.37
2019-02-28T15:13:53.210Z,42.33
2019-02-28T15:16:21.709Z,37.17
2019-02-28T15:18:51.218Z,31.87
2019-02-28T15:21:19.679Z,44.50
2019-02-28T15:23:48.066Z,29.53
2019-02-28T15:26:16.522Z,42.07
2019-02-28T15:28:45.512Z,41.70
2019-02-28T15:31:14.913Z,35.33
2019-02-28T15:33:43.292Z,39.70
2019-02-28T15:36:11.792Z,35.53
2019-02-28T15:38:41.942Z,43.63
2019-02-28T15:41:10.237Z,44.20
2019-02-28T15:43:38.655Z,46.97
2019-02-28T15:46:08.637Z,48.43
2019-02-28T15:48:36.917Z,60.43
2019-02-28T15:51:05.342Z,46.83
2019-02-28T15:53:33.647Z,40.23
2019-02-28T15:56:02.104Z,36.30
2019-02-28T15:58:30.474Z,37.00
2019-02-28T16:00:58.822Z,38.10
2019-02-28T16:03:27.227Z,32.93
2019-02-28T16:05:56.287Z,46.63
2019-02-28T16:08:24.652Z,49.83
2019-02-28T16:10:53.745Z,41.57
2019-02-28T16:13:22.655Z,54.47
2019-02-28T16:15:52.237Z,38.83
2019-02-28T16:18:20.588Z,62.30
2019-02-28T16:20:48.808Z,56.53
2019-02-28T16:23:17.248Z,51.97
2019-02-28T16:25:46.910Z,38.60
2019-02-28T16:28:15.515Z,38.80
2019-02-28T16:30:44.006Z,48.43
2019-02-28T16:33:12.374Z,42.97
2019-02-28T16:35:40.710Z,54.97
2019-02-28T16:38:10.114Z,39.93
2019-02-28T16:40:38.868Z,35.67
2019-02-28T16:43:28.169Z,47.90
2019-02-28T16:46:30.959Z,40.80
2019-02-28T16:48:59.039Z,48.03
2019-02-28T16:51:29.411Z,52.73
2019-02-28T16:53:57.323Z,49.67
2019-02-28T16:56:25.651Z,37.33
2019-02-28T16:58:57.270Z,37.83
2019-02-28T17:01:23.706Z,51.53
2019-02-28T17:03:51.975Z,51.77
2019-02-28T17:06:20.388Z,49.37
2019-02-28T17:08:51.474Z,43.93
2019-02-28T17:11:20.386Z,43.50
2019-02-28T17:13:50.319Z,47.37
2019-02-28T17:16:20.364Z,63.93
2019-02-28T17:18:48.729Z,47.40
2019-02-28T17:21:18.115Z,48.90
2019-02-28T17:23:46.846Z,50.60
2019-02-28T17:26:15.213Z,32.97
2019-02-28T17:28:46.560Z,48.00
2019-02-28T17:31:16.887Z,40.40
2019-02-28T17:33:46.797Z,25.77
2019-02-28T17:36:15.750Z,38.57
2019-02-28T17:38:44.273Z,42.03
2019-02-28T17:41:12.594Z,46.33
2019-02-28T17:43:41.254Z,50.83
2019-02-28T17:46:11.314Z,43.90
2019-02-28T17:48:41.289Z,47.50
2019-02-28T17:51:11.066Z,42.83
2019-02-28T17:53:42.038Z,49.80
2019-02-28T17:56:12.470Z,55.87
2019-02-28T17:58:42.483Z,64.77
2019-02-28T18:01:10.504Z,51.67
2019-02-28T18:03:40.508Z,49.13
2019-02-28T18:06:12.050Z,53.30
2019-02-28T18:08:41.874Z,50.07
2019-02-28T18:11:11.676Z,44.40
2019-02-28T18:13:41.598Z,55.47
2019-02-28T18:16:11.386Z,61.30
2019-02-28T18:18:41.844Z,50.70
2019-02-28T18:21:12.534Z,62.20
2019-02-28T18:23:42.429Z,47.27
2019-02-28T18:26:12.274Z,50.40
2019-02-28T18:28:42.348Z,55.23
2019-02-28T18:31:11.410Z,49.13
2019-02-28T18:33:41.844Z,43.23
2019-02-28T18:36:12.436Z,51.50
2019-02-28T18:38:40.647Z,39.03
2019-02-28T18:41:10.000Z,53.23
2019-02-28T18:43:40.369Z,37.70
2019-02-28T18:46:08.415Z,44.40
2019-02-28T18:48:36.734Z,65.10
2019-02-28T18:51:05.290Z,29.30
2019-02-28T18:53:33.709Z,66.77
2019-02-28T18:56:02.129Z,56.17
2019-02-28T18:58:30.522Z,60.83
2019-02-28T19:00:58.959Z,62.63
2019-02-28T19:03:27.423Z,59.03
2019-02-28T19:05:55.792Z,47.83
2019-02-28T19:08:24.266Z,61.33
2019-02-28T19:10:52.656Z,35.53
2019-02-28T19:13:21.147Z,56.03
2019-02-28T19:15:49.540Z,63.13
2019-02-28T19:18:18.004Z,64.97
2019-02-28T19:20:46.563Z,40.57
2019-02-28T19:23:15.926Z,50.87
2019-02-28T19:25:44.414Z,58.60
2019-02-28T19:28:12.853Z,61.80
2019-02-28T19:30:41.287Z,46.37
2019-02-28T19:33:09.683Z,58.20
2019-02-28T19:35:40.956Z,53.27
2019-02-28T19:38:09.255Z,32.67
2019-02-28T19:40:37.574Z,45.70
2019-02-28T19:43:05.920Z,59.60
2019-02-28T19:45:35.892Z,41.13
2019-02-28T19:48:04.362Z,49.07
2019-02-28T19:50:32.742Z,43.67
2019-02-28T19:53:00.947Z,49.90
2019-02-28T19:55:29.389Z,51.00
2019-02-28T19:57:58.437Z,50.00
2019-02-28T20:00:27.011Z,46.40
2019-02-28T20:02:55.634Z,55.47
2019-02-28T20:05:25.076Z,42.50
2019-02-28T20:07:53.464Z,48.13
2019-02-28T20:10:21.840Z,54.93
2019-02-28T20:12:50.312Z,51.07
2019-02-28T20:15:21.770Z,44.57
2019-02-28T20:17:50.113Z,38.43
2019-02-28T20:20:20.398Z,20.80
2019-02-28T20:22:48.830Z,24.00
2019-02-28T20:25:17.324Z,18.93
2019-02-28T20:27:45.651Z,16.97
2019-02-28T20:30:15.546Z,14.03
2019-02-28T20:32:44.063Z,20.37
2019-02-28T20:35:13.902Z,13.77
2019-02-28T20:37:42.242Z,15.90
2019-02-28T20:40:13.956Z,19.60
2019-02-28T20:42:43.432Z,10.90
2019-02-28T20:45:12.044Z,14.07
2019-02-28T20:47:40.466Z,16.10
2019-02-28T20:50:11.206Z,12.67
2019-02-28T20:52:39.593Z,15.30
2019-02-28T20:55:08.014Z,18.40
2019-02-28T21:00:13.575Z,24.97
2019-02-28T21:02:42.351Z,27.57
2019-02-28T21:05:10.954Z,26.43
2019-02-28T21:07:39.312Z,32.97
2019-02-28T21:10:08.530Z,58.20
2019-02-28T21:12:37.106Z,65.53
2019-02-28T21:15:06.830Z,78.27
2019-02-28T21:17:35.177Z,75.97
2019-02-28T21:20:05.200Z,86.87
2019-02-28T21:22:34.003Z,81.20
2019-02-28T21:25:02.639Z,84.67
2019-02-28T21:27:31.082Z,68.70
2019-02-28T21:29:59.552Z,62.13
2019-02-28T21:32:27.788Z,71.53
2019-02-28T21:34:56.015Z,61.80
2019-02-28T21:37:24.807Z,71.77
2019-02-28T21:39:53.085Z,77.50
2019-02-28T21:42:23.407Z,82.13
2019-02-28T21:44:51.790Z,76.60
2019-02-28T21:47:20.311Z,72.43
2019-02-28T21:49:48.853Z,61.40
2019-02-28T21:52:17.978Z,64.43
2019-02-28T21:54:47.757Z,78.00
2019-02-28T21:57:17.942Z,70.13
2019-02-28T21:59:46.389Z,55.20
2019-02-28T22:02:14.937Z,67.23
2019-02-28T22:04:43.243Z,74.17
2019-02-28T22:07:11.708Z,71.10
2019-02-28T22:09:40.014Z,63.67
2019-02-28T22:12:08.590Z,71.23
2019-02-28T22:14:36.890Z,56.73
2019-02-28T22:17:05.234Z,68.07
2019-02-28T22:19:33.764Z,47.47
2019-02-28T22:22:02.381Z,67.37
2019-02-28T22:24:30.793Z,51.20
2019-02-28T22:26:59.020Z,53.10
2019-02-28T22:29:27.416Z,63.37
2019-02-28T22:31:57.327Z,68.97
2019-02-28T22:34:27.111Z,69.80
2019-02-28T22:36:55.481Z,51.73
2019-02-28T22:39:23.908Z,73.73
2019-02-28T22:41:52.191Z,63.63
2019-02-28T22:44:20.569Z,63.43
2019-02-28T22:46:49.063Z,64.23
2019-02-28T22:49:17.321Z,63.53
2019-02-28T22:51:45.703Z,59.27
2019-02-28T22:54:13.995Z,68.03
2019-02-28T22:56:42.380Z,58.33
2019-02-28T22:59:10.612Z,53.27
2019-02-28T23:01:39.544Z,68.23
2019-02-28T23:04:07.781Z,60.73
2019-02-28T23:06:36.073Z,88.07
2019-02-28T23:09:05.286Z,77.53
2019-02-28T23:11:35.254Z,59.93
2019-02-28T23:14:03.834Z,72.70
2019-02-28T23:16:32.112Z,75.70
2019-02-28T23:19:00.462Z,75.97
2019-02-28T23:21:28.716Z,60.77
2019-02-28T23:23:57.006Z,84.77
2019-02-28T23:26:25.564Z,87.20
2019-02-28T23:28:55.420Z,42.07
2019-02-28T23:31:25.304Z,67.20
2019-02-28T23:34:01.270Z,77.33
2019-02-28T23:36:25.259Z,108.87
2019-02-28T23:38:53.608Z,80.17
2019-02-28T23:41:21.879Z,86.97
2019-02-28T23:43:50.267Z,82.47
2019-02-28T23:46:18.507Z,80.70
2019-02-28T23:48:46.823Z,76.70
2019-02-28T23:51:15.135Z,81.47
2019-02-28T23:53:43.345Z,99.00
2019-02-28T23:56:11.730Z,60.67
2019-02-28T23:58:39.947Z,62.73
